sensor_id;sensor_type;location;lat;lon;timestamp;P1;durP1;ratioP1;P2;durP2;ratioP2
23388;SDS011;11867;51.198;11.966;2023-04-16T00:00:43;7.88;;;7.07;;
23388;SDS011;11867;51.198;11.966;2023-04-16T00:02:06;7.78;;;7.07;;
23388;SDS011;11867;51.198;11.966;2023-04-16T00:03:29;7.85;;;7.00;;
23388;SDS011;11867;51.198;11.966;2023-04-16T00:04:53;8.52;;;7.63;;
23388;SDS011;11867;51.198;11.966;2023-04-16T00:06:15;9.43;;;7.18;;
23388;SDS011;11867;51.198;11.966;2023-04-16T00:07:38;8.75;;;7.25;;
23388;SDS011;11867;51.198;11.966;2023-04-16T00:09:03;7.20;;;6.50;;
23388;SDS011;11867;51.198;11.966;2023-04-16T00:10:25;8.32;;;6.88;;
23388;SDS011;11867;51.198;11.966;2023-04-16T00:11:49;7.75;;;6.93;;
23388;SDS011;11867;51.198;11.966;2023-04-16T00:13:11;7.80;;;7.00;;
23388;SDS011;11867;51.198;11.966;2023-04-16T00:14:34;8.90;;;7.40;;
23388;SDS011;11867;51.198;11.966;2023-04-16T00:15:56;7.93;;;7.20;;
23388;SDS011;11867;51.198;11.966;2023-04-16T00:17:19;9.27;;;7.53;;
23388;SDS011;11867;51.198;11.966;2023-04-16T00:18:41;9.20;;;7.63;;
23388;SDS011;11867;51.198;11.966;2023-04-16T00:20:04;8.27;;;7.47;;
23388;SDS011;11867;51.198;11.966;2023-04-16T00:21:29;8.32;;;7.47;;
23388;SDS011;11867;51.198;11.966;2023-04-16T00:22:52;8.05;;;7.20;;
23388;SDS011;11867;51.198;11.966;2023-04-16T00:24:14;10.23;;;7.20;;
23388;SDS011;11867;51.198;11.966;2023-04-16T00:25:38;8.55;;;7.18;;
23388;SDS011;11867;51.198;11.966;2023-04-16T00:27:01;8.55;;;7.65;;
23388;SDS011;11867;51.198;11.966;2023-04-16T00:28:24;9.02;;;7.55;;
23388;SDS011;11867;51.198;11.966;2023-04-16T00:29:46;8.75;;;7.65;;
23388;SDS011;11867;51.198;11.966;2023-04-16T00:31:09;8.55;;;7.65;;
23388;SDS011;11867;51.198;11.966;2023-04-16T00:32:32;8.73;;;7.82;;
23388;SDS011;11867;51.198;11.966;2023-04-16T00:33:55;8.45;;;7.60;;
23388;SDS011;11867;51.198;11.966;2023-04-16T00:35:17;8.95;;;7.97;;
23388;SDS011;11867;51.198;11.966;2023-04-16T00:36:40;11.38;;;7.95;;
23388;SDS011;11867;51.198;11.966;2023-04-16T00:38:04;8.98;;;8.15;;
23388;SDS011;11867;51.198;11.966;2023-04-16T00:39:26;9.32;;;8.32;;
23388;SDS011;11867;51.198;11.966;2023-04-16T00:40:49;9.93;;;8.82;;
23388;SDS011;11867;51.198;11.966;2023-04-16T00:42:13;10.25;;;8.88;;
23388;SDS011;11867;51.198;11.966;2023-04-16T00:43:36;9.77;;;8.70;;
23388;SDS011;11867;51.198;11.966;2023-04-16T00:44:59;9.57;;;8.55;;
23388;SDS011;11867;51.198;11.966;2023-04-16T00:46:23;11.13;;;8.93;;
23388;SDS011;11867;51.198;11.966;2023-04-16T00:47:45;9.75;;;8.75;;
23388;SDS011;11867;51.198;11.966;2023-04-16T00:49:09;10.25;;;8.15;;
23388;SDS011;11867;51.198;11.966;2023-04-16T00:50:41;8.82;;;7.93;;
23388;SDS011;11867;51.198;11.966;2023-04-16T00:52:04;9.23;;;8.30;;
23388;SDS011;11867;51.198;11.966;2023-04-16T00:53:27;9.52;;;8.52;;
23388;SDS011;11867;51.198;11.966;2023-04-16T00:54:49;10.80;;;9.07;;
23388;SDS011;11867;51.198;11.966;2023-04-16T00:56:13;9.90;;;8.50;;
23388;SDS011;11867;51.198;11.966;2023-04-16T00:57:39;10.20;;;9.10;;
23388;SDS011;11867;51.198;11.966;2023-04-16T00:59:03;9.63;;;8.63;;
23388;SDS011;11867;51.198;11.966;2023-04-16T01:00:28;10.63;;;9.32;;
23388;SDS011;11867;51.198;11.966;2023-04-16T01:01:52;9.75;;;8.73;;
23388;SDS011;11867;51.198;11.966;2023-04-16T01:03:15;10.45;;;9.07;;
23388;SDS011;11867;51.198;11.966;2023-04-16T01:04:38;9.95;;;8.98;;
23388;SDS011;11867;51.198;11.966;2023-04-16T01:06:02;9.88;;;8.70;;
23388;SDS011;11867;51.198;11.966;2023-04-16T01:07:24;10.93;;;9.57;;
23388;SDS011;11867;51.198;11.966;2023-04-16T01:08:47;11.25;;;8.98;;
23388;SDS011;11867;51.198;11.966;2023-04-16T01:10:10;11.60;;;9.55;;
23388;SDS011;11867;51.198;11.966;2023-04-16T01:11:32;10.25;;;9.10;;
23388;SDS011;11867;51.198;11.966;2023-04-16T01:12:56;9.30;;;8.32;;
23388;SDS011;11867;51.198;11.966;2023-04-16T01:14:19;10.15;;;9.05;;
23388;SDS011;11867;51.198;11.966;2023-04-16T01:15:42;9.50;;;8.02;;
23388;SDS011;11867;51.198;11.966;2023-04-16T01:17:04;9.70;;;8.63;;
23388;SDS011;11867;51.198;11.966;2023-04-16T01:18:28;9.48;;;8.52;;
23388;SDS011;11867;51.198;11.966;2023-04-16T01:19:49;10.48;;;9.38;;
23388;SDS011;11867;51.198;11.966;2023-04-16T01:21:13;11.50;;;9.75;;
23388;SDS011;11867;51.198;11.966;2023-04-16T01:22:36;11.77;;;10.02;;
23388;SDS011;11867;51.198;11.966;2023-04-16T01:24:00;12.80;;;10.13;;
23388;SDS011;11867;51.198;11.966;2023-04-16T01:25:24;11.23;;;10.02;;
23388;SDS011;11867;51.198;11.966;2023-04-16T01:26:47;12.90;;;11.20;;
23388;SDS011;11867;51.198;11.966;2023-04-16T01:28:09;12.90;;;10.38;;
23388;SDS011;11867;51.198;11.966;2023-04-16T01:29:33;12.43;;;10.48;;
23388;SDS011;11867;51.198;11.966;2023-04-16T01:30:56;11.05;;;9.90;;
23388;SDS011;11867;51.198;11.966;2023-04-16T01:32:18;11.55;;;10.38;;
23388;SDS011;11867;51.198;11.966;2023-04-16T01:33:41;11.20;;;9.68;;
23388;SDS011;11867;51.198;11.966;2023-04-16T01:35:03;11.15;;;10.00;;
23388;SDS011;11867;51.198;11.966;2023-04-16T01:36:29;12.57;;;10.23;;
23388;SDS011;11867;51.198;11.966;2023-04-16T01:37:52;14.77;;;10.82;;
23388;SDS011;11867;51.198;11.966;2023-04-16T01:39:15;12.98;;;10.10;;
23388;SDS011;11867;51.198;11.966;2023-04-16T01:40:39;12.15;;;10.18;;
23388;SDS011;11867;51.198;11.966;2023-04-16T01:42:01;12.55;;;10.50;;
23388;SDS011;11867;51.198;11.966;2023-04-16T01:43:24;11.80;;;9.48;;
23388;SDS011;11867;51.198;11.966;2023-04-16T01:44:46;11.80;;;10.32;;
23388;SDS011;11867;51.198;11.966;2023-04-16T01:46:13;13.90;;;11.98;;
23388;SDS011;11867;51.198;11.966;2023-04-16T01:47:42;13.27;;;11.15;;
23388;SDS011;11867;51.198;11.966;2023-04-16T01:49:05;13.48;;;10.32;;
23388;SDS011;11867;51.198;11.966;2023-04-16T01:50:28;12.63;;;10.75;;
23388;SDS011;11867;51.198;11.966;2023-04-16T01:51:51;12.13;;;10.82;;
23388;SDS011;11867;51.198;11.966;2023-04-16T01:53:14;13.32;;;11.40;;
23388;SDS011;11867;51.198;11.966;2023-04-16T01:54:36;16.10;;;12.15;;
23388;SDS011;11867;51.198;11.966;2023-04-16T01:55:59;14.93;;;11.57;;
23388;SDS011;11867;51.198;11.966;2023-04-16T01:57:21;14.52;;;12.32;;
23388;SDS011;11867;51.198;11.966;2023-04-16T01:58:44;15.25;;;12.10;;
23388;SDS011;11867;51.198;11.966;2023-04-16T02:00:09;17.10;;;12.48;;
23388;SDS011;11867;51.198;11.966;2023-04-16T02:01:32;16.08;;;12.75;;
23388;SDS011;11867;51.198;11.966;2023-04-16T02:02:54;18.55;;;13.68;;
23388;SDS011;11867;51.198;11.966;2023-04-16T02:04:17;17.42;;;13.05;;
23388;SDS011;11867;51.198;11.966;2023-04-16T02:05:39;14.00;;;12.30;;
23388;SDS011;11867;51.198;11.966;2023-04-16T02:07:04;14.00;;;12.00;;
23388;SDS011;11867;51.198;11.966;2023-04-16T02:08:28;13.70;;;11.90;;
23388;SDS011;11867;51.198;11.966;2023-04-16T02:09:51;14.20;;;11.77;;
23388;SDS011;11867;51.198;11.966;2023-04-16T02:11:13;14.40;;;12.20;;
23388;SDS011;11867;51.198;11.966;2023-04-16T02:12:36;18.23;;;13.60;;
23388;SDS011;11867;51.198;11.966;2023-04-16T02:13:58;16.15;;;13.63;;
23388;SDS011;11867;51.198;11.966;2023-04-16T02:15:21;16.98;;;12.55;;
23388;SDS011;11867;51.198;11.966;2023-04-16T02:16:45;18.42;;;12.50;;
23388;SDS011;11867;51.198;11.966;2023-04-16T02:18:07;15.88;;;12.80;;
23388;SDS011;11867;51.198;11.966;2023-04-16T02:19:29;16.35;;;12.48;;
23388;SDS011;11867;51.198;11.966;2023-04-16T02:20:52;19.25;;;13.00;;
23388;SDS011;11867;51.198;11.966;2023-04-16T02:22:16;18.85;;;13.63;;
23388;SDS011;11867;51.198;11.966;2023-04-16T02:23:39;18.55;;;13.50;;
23388;SDS011;11867;51.198;11.966;2023-04-16T02:25:02;17.17;;;13.45;;
23388;SDS011;11867;51.198;11.966;2023-04-16T02:26:25;17.02;;;14.25;;
23388;SDS011;11867;51.198;11.966;2023-04-16T02:27:49;17.35;;;13.80;;
23388;SDS011;11867;51.198;11.966;2023-04-16T02:29:12;17.45;;;13.45;;
23388;SDS011;11867;51.198;11.966;2023-04-16T02:30:35;16.23;;;13.23;;
23388;SDS011;11867;51.198;11.966;2023-04-16T02:31:57;18.77;;;13.35;;
23388;SDS011;11867;51.198;11.966;2023-04-16T02:33:21;16.85;;;13.90;;
23388;SDS011;11867;51.198;11.966;2023-04-16T02:34:46;16.73;;;13.73;;
23388;SDS011;11867;51.198;11.966;2023-04-16T02:36:09;17.48;;;14.20;;
23388;SDS011;11867;51.198;11.966;2023-04-16T02:37:33;17.13;;;13.85;;
23388;SDS011;11867;51.198;11.966;2023-04-16T02:38:57;18.98;;;14.32;;
23388;SDS011;11867;51.198;11.966;2023-04-16T02:40:19;17.55;;;13.75;;
23388;SDS011;11867;51.198;11.966;2023-04-16T02:41:42;16.80;;;13.75;;
23388;SDS011;11867;51.198;11.966;2023-04-16T02:43:06;17.15;;;13.25;;
23388;SDS011;11867;51.198;11.966;2023-04-16T02:44:29;15.73;;;13.15;;
23388;SDS011;11867;51.198;11.966;2023-04-16T02:45:52;17.70;;;13.25;;
23388;SDS011;11867;51.198;11.966;2023-04-16T02:47:15;17.50;;;13.40;;
23388;SDS011;11867;51.198;11.966;2023-04-16T02:48:38;16.33;;;13.43;;
23388;SDS011;11867;51.198;11.966;2023-04-16T02:50:01;17.15;;;13.43;;
23388;SDS011;11867;51.198;11.966;2023-04-16T02:51:25;15.88;;;13.25;;
23388;SDS011;11867;51.198;11.966;2023-04-16T02:52:50;18.73;;;14.63;;
23388;SDS011;11867;51.198;11.966;2023-04-16T02:54:13;15.38;;;13.10;;
23388;SDS011;11867;51.198;11.966;2023-04-16T02:55:37;17.63;;;13.82;;
23388;SDS011;11867;51.198;11.966;2023-04-16T02:56:59;18.38;;;14.48;;
23388;SDS011;11867;51.198;11.966;2023-04-16T02:58:24;17.42;;;14.52;;
23388;SDS011;11867;51.198;11.966;2023-04-16T02:59:49;16.52;;;13.85;;
23388;SDS011;11867;51.198;11.966;2023-04-16T03:01:12;16.83;;;14.95;;
23388;SDS011;11867;51.198;11.966;2023-04-16T03:02:35;19.23;;;15.27;;
23388;SDS011;11867;51.198;11.966;2023-04-16T03:03:58;18.05;;;14.95;;
23388;SDS011;11867;51.198;11.966;2023-04-16T03:05:20;17.45;;;14.45;;
23388;SDS011;11867;51.198;11.966;2023-04-16T03:06:43;16.33;;;12.93;;
23388;SDS011;11867;51.198;11.966;2023-04-16T03:08:09;16.50;;;13.48;;
23388;SDS011;11867;51.198;11.966;2023-04-16T03:09:33;16.80;;;12.75;;
23388;SDS011;11867;51.198;11.966;2023-04-16T03:10:54;17.13;;;13.45;;
23388;SDS011;11867;51.198;11.966;2023-04-16T03:12:11;16.33;;;13.00;;
23388;SDS011;11867;51.198;11.966;2023-04-16T03:13:32;17.10;;;13.38;;
23388;SDS011;11867;51.198;11.966;2023-04-16T03:14:53;15.07;;;13.18;;
23388;SDS011;11867;51.198;11.966;2023-04-16T03:16:14;15.73;;;12.88;;
23388;SDS011;11867;51.198;11.966;2023-04-16T03:17:34;17.40;;;13.68;;
23388;SDS011;11867;51.198;11.966;2023-04-16T03:18:55;16.45;;;12.60;;
23388;SDS011;11867;51.198;11.966;2023-04-16T03:20:16;18.00;;;12.98;;
23388;SDS011;11867;51.198;11.966;2023-04-16T03:21:37;17.00;;;12.70;;
23388;SDS011;11867;51.198;11.966;2023-04-16T03:22:58;15.18;;;12.98;;
23388;SDS011;11867;51.198;11.966;2023-04-16T03:24:20;17.25;;;13.20;;
23388;SDS011;11867;51.198;11.966;2023-04-16T03:25:42;14.60;;;12.18;;
23388;SDS011;11867;51.198;11.966;2023-04-16T03:27:05;15.27;;;12.60;;
23388;SDS011;11867;51.198;11.966;2023-04-16T03:28:29;15.70;;;12.43;;
23388;SDS011;11867;51.198;11.966;2023-04-16T03:29:49;18.70;;;12.68;;
23388;SDS011;11867;51.198;11.966;2023-04-16T03:31:10;17.90;;;13.27;;
23388;SDS011;11867;51.198;11.966;2023-04-16T03:32:31;18.33;;;12.90;;
23388;SDS011;11867;51.198;11.966;2023-04-16T03:33:52;18.02;;;12.85;;
23388;SDS011;11867;51.198;11.966;2023-04-16T03:35:13;16.67;;;12.68;;
23388;SDS011;11867;51.198;11.966;2023-04-16T03:36:34;19.80;;;13.70;;
23388;SDS011;11867;51.198;11.966;2023-04-16T03:39:16;17.33;;;13.35;;
23388;SDS011;11867;51.198;11.966;2023-04-16T03:40:39;15.82;;;12.60;;
23388;SDS011;11867;51.198;11.966;2023-04-16T03:42:00;18.23;;;12.43;;
23388;SDS011;11867;51.198;11.966;2023-04-16T03:43:22;17.40;;;12.63;;
23388;SDS011;11867;51.198;11.966;2023-04-16T03:44:42;17.23;;;13.63;;
23388;SDS011;11867;51.198;11.966;2023-04-16T03:46:03;16.67;;;13.00;;
23388;SDS011;11867;51.198;11.966;2023-04-16T03:47:25;14.82;;;11.88;;
23388;SDS011;11867;51.198;11.966;2023-04-16T03:48:46;20.85;;;13.63;;
23388;SDS011;11867;51.198;11.966;2023-04-16T03:50:07;16.02;;;12.48;;
23388;SDS011;11867;51.198;11.966;2023-04-16T03:51:28;18.95;;;13.57;;
23388;SDS011;11867;51.198;11.966;2023-04-16T03:52:50;19.40;;;14.35;;
23388;SDS011;11867;51.198;11.966;2023-04-16T03:54:10;17.65;;;13.63;;
23388;SDS011;11867;51.198;11.966;2023-04-16T03:55:31;20.23;;;14.73;;
23388;SDS011;11867;51.198;11.966;2023-04-16T03:56:53;20.00;;;16.13;;
23388;SDS011;11867;51.198;11.966;2023-04-16T03:58:15;24.58;;;17.70;;
23388;SDS011;11867;51.198;11.966;2023-04-16T03:59:35;25.48;;;17.80;;
23388;SDS011;11867;51.198;11.966;2023-04-16T04:00:57;23.08;;;16.10;;
23388;SDS011;11867;51.198;11.966;2023-04-16T04:02:15;20.95;;;15.63;;
23388;SDS011;11867;51.198;11.966;2023-04-16T04:03:36;22.73;;;16.33;;
23388;SDS011;11867;51.198;11.966;2023-04-16T04:04:57;17.25;;;12.10;;
23388;SDS011;11867;51.198;11.966;2023-04-16T04:06:18;21.95;;;15.77;;
23388;SDS011;11867;51.198;11.966;2023-04-16T04:07:38;24.60;;;16.77;;
23388;SDS011;11867;51.198;11.966;2023-04-16T04:09:00;24.10;;;16.73;;
23388;SDS011;11867;51.198;11.966;2023-04-16T04:10:21;25.65;;;17.42;;
23388;SDS011;11867;51.198;11.966;2023-04-16T04:11:42;23.58;;;16.73;;
23388;SDS011;11867;51.198;11.966;2023-04-16T04:13:04;22.05;;;15.88;;
23388;SDS011;11867;51.198;11.966;2023-04-16T04:14:25;25.33;;;17.35;;
23388;SDS011;11867;51.198;11.966;2023-04-16T04:17:07;21.90;;;15.65;;
23388;SDS011;11867;51.198;11.966;2023-04-16T04:18:28;22.92;;;16.13;;
23388;SDS011;11867;51.198;11.966;2023-04-16T04:21:20;20.77;;;15.02;;
23388;SDS011;11867;51.198;11.966;2023-04-16T04:22:38;23.40;;;15.65;;
23388;SDS011;11867;51.198;11.966;2023-04-16T04:24:00;23.13;;;14.75;;
23388;SDS011;11867;51.198;11.966;2023-04-16T04:25:21;21.40;;;15.40;;
23388;SDS011;11867;51.198;11.966;2023-04-16T04:26:41;22.77;;;15.02;;
23388;SDS011;11867;51.198;11.966;2023-04-16T04:28:04;22.95;;;14.98;;
23388;SDS011;11867;51.198;11.966;2023-04-16T04:29:25;21.20;;;15.13;;
23388;SDS011;11867;51.198;11.966;2023-04-16T04:30:45;22.30;;;14.65;;
23388;SDS011;11867;51.198;11.966;2023-04-16T04:33:27;18.77;;;13.95;;
23388;SDS011;11867;51.198;11.966;2023-04-16T04:34:48;19.35;;;13.38;;
23388;SDS011;11867;51.198;11.966;2023-04-16T04:36:08;21.30;;;13.73;;
23388;SDS011;11867;51.198;11.966;2023-04-16T04:37:29;25.10;;;15.13;;
23388;SDS011;11867;51.198;11.966;2023-04-16T04:38:49;22.60;;;14.38;;
23388;SDS011;11867;51.198;11.966;2023-04-16T04:40:11;19.80;;;13.60;;
23388;SDS011;11867;51.198;11.966;2023-04-16T04:41:32;19.67;;;13.45;;
23388;SDS011;11867;51.198;11.966;2023-04-16T04:42:52;20.98;;;13.32;;
23388;SDS011;11867;51.198;11.966;2023-04-16T04:44:15;18.98;;;13.65;;
23388;SDS011;11867;51.198;11.966;2023-04-16T04:45:36;20.02;;;13.30;;
23388;SDS011;11867;51.198;11.966;2023-04-16T04:46:57;18.67;;;13.48;;
23388;SDS011;11867;51.198;11.966;2023-04-16T04:48:17;19.73;;;13.63;;
23388;SDS011;11867;51.198;11.966;2023-04-16T04:49:40;19.02;;;12.90;;
23388;SDS011;11867;51.198;11.966;2023-04-16T04:51:01;16.85;;;12.98;;
23388;SDS011;11867;51.198;11.966;2023-04-16T04:52:24;19.15;;;13.27;;
23388;SDS011;11867;51.198;11.966;2023-04-16T04:53:44;20.52;;;13.95;;
23388;SDS011;11867;51.198;11.966;2023-04-16T04:56:24;18.85;;;12.85;;
23388;SDS011;11867;51.198;11.966;2023-04-16T04:57:45;18.05;;;13.35;;
23388;SDS011;11867;51.198;11.966;2023-04-16T05:00:28;16.73;;;11.93;;
23388;SDS011;11867;51.198;11.966;2023-04-16T05:01:49;20.38;;;12.80;;
23388;SDS011;11867;51.198;11.966;2023-04-16T05:03:10;17.20;;;12.20;;
23388;SDS011;11867;51.198;11.966;2023-04-16T05:04:31;19.35;;;12.40;;
23388;SDS011;11867;51.198;11.966;2023-04-16T05:05:53;15.18;;;11.00;;
23388;SDS011;11867;51.198;11.966;2023-04-16T05:07:15;14.32;;;10.38;;
23388;SDS011;11867;51.198;11.966;2023-04-16T05:11:16;15.77;;;10.98;;
23388;SDS011;11867;51.198;11.966;2023-04-16T05:13:58;9.93;;;7.57;;
23388;SDS011;11867;51.198;11.966;2023-04-16T05:15:19;13.73;;;9.80;;
23388;SDS011;11867;51.198;11.966;2023-04-16T05:16:41;14.10;;;9.60;;
23388;SDS011;11867;51.198;11.966;2023-04-16T05:18:02;11.55;;;8.73;;
23388;SDS011;11867;51.198;11.966;2023-04-16T05:19:24;10.88;;;8.35;;
23388;SDS011;11867;51.198;11.966;2023-04-16T05:20:44;11.68;;;9.23;;
23388;SDS011;11867;51.198;11.966;2023-04-16T05:22:03;13.65;;;10.05;;
23388;SDS011;11867;51.198;11.966;2023-04-16T05:23:23;10.93;;;8.88;;
23388;SDS011;11867;51.198;11.966;2023-04-16T05:26:05;6.95;;;5.38;;
23388;SDS011;11867;51.198;11.966;2023-04-16T05:28:46;10.05;;;7.32;;
23388;SDS011;11867;51.198;11.966;2023-04-16T05:30:08;10.00;;;7.63;;
23388;SDS011;11867;51.198;11.966;2023-04-16T05:31:30;9.73;;;7.70;;
23388;SDS011;11867;51.198;11.966;2023-04-16T05:32:51;12.38;;;8.57;;
23388;SDS011;11867;51.198;11.966;2023-04-16T05:34:13;10.23;;;8.68;;
23388;SDS011;11867;51.198;11.966;2023-04-16T05:36:55;7.22;;;5.97;;
23388;SDS011;11867;51.198;11.966;2023-04-16T05:38:15;9.67;;;8.20;;
23388;SDS011;11867;51.198;11.966;2023-04-16T05:39:36;10.15;;;8.00;;
23388;SDS011;11867;51.198;11.966;2023-04-16T05:40:57;9.85;;;8.13;;
23388;SDS011;11867;51.198;11.966;2023-04-16T05:42:18;9.95;;;8.57;;
23388;SDS011;11867;51.198;11.966;2023-04-16T05:43:39;10.95;;;9.18;;
23388;SDS011;11867;51.198;11.966;2023-04-16T05:45:00;10.00;;;9.00;;
23388;SDS011;11867;51.198;11.966;2023-04-16T05:46:23;9.65;;;8.65;;
23388;SDS011;11867;51.198;11.966;2023-04-16T05:47:43;10.70;;;9.65;;
23388;SDS011;11867;51.198;11.966;2023-04-16T05:49:06;11.15;;;9.90;;
23388;SDS011;11867;51.198;11.966;2023-04-16T05:50:27;10.32;;;9.32;;
23388;SDS011;11867;51.198;11.966;2023-04-16T05:51:47;12.45;;;10.27;;
23388;SDS011;11867;51.198;11.966;2023-04-16T05:53:09;10.60;;;9.40;;
23388;SDS011;11867;51.198;11.966;2023-04-16T05:54:32;11.32;;;9.88;;
23388;SDS011;11867;51.198;11.966;2023-04-16T05:55:54;13.70;;;9.93;;
23388;SDS011;11867;51.198;11.966;2023-04-16T05:57:14;12.80;;;10.50;;
23388;SDS011;11867;51.198;11.966;2023-04-16T05:58:35;11.00;;;9.90;;
23388;SDS011;11867;51.198;11.966;2023-04-16T06:01:17;10.70;;;9.60;;
23388;SDS011;11867;51.198;11.966;2023-04-16T06:02:39;11.23;;;10.00;;
23388;SDS011;11867;51.198;11.966;2023-04-16T06:04:00;12.27;;;10.98;;
23388;SDS011;11867;51.198;11.966;2023-04-16T06:05:22;8.63;;;7.72;;
23388;SDS011;11867;51.198;11.966;2023-04-16T06:06:45;11.70;;;10.50;;
23388;SDS011;11867;51.198;11.966;2023-04-16T06:08:06;11.43;;;10.27;;
23388;SDS011;11867;51.198;11.966;2023-04-16T06:09:28;12.10;;;10.57;;
23388;SDS011;11867;51.198;11.966;2023-04-16T06:10:49;12.90;;;10.73;;
23388;SDS011;11867;51.198;11.966;2023-04-16T06:12:10;12.45;;;10.43;;
23388;SDS011;11867;51.198;11.966;2023-04-16T06:13:32;12.80;;;11.23;;
23388;SDS011;11867;51.198;11.966;2023-04-16T06:14:53;9.73;;;8.27;;
23388;SDS011;11867;51.198;11.966;2023-04-16T06:16:13;12.82;;;11.02;;
23388;SDS011;11867;51.198;11.966;2023-04-16T06:17:34;13.70;;;11.05;;
23388;SDS011;11867;51.198;11.966;2023-04-16T06:18:55;14.05;;;12.18;;
23388;SDS011;11867;51.198;11.966;2023-04-16T06:20:16;15.13;;;11.77;;
23388;SDS011;11867;51.198;11.966;2023-04-16T06:21:39;14.73;;;11.95;;
23388;SDS011;11867;51.198;11.966;2023-04-16T06:22:59;14.52;;;12.40;;
23388;SDS011;11867;51.198;11.966;2023-04-16T06:24:20;15.65;;;12.77;;
23388;SDS011;11867;51.198;11.966;2023-04-16T06:25:42;14.38;;;11.80;;
23388;SDS011;11867;51.198;11.966;2023-04-16T06:27:00;14.70;;;12.75;;
23388;SDS011;11867;51.198;11.966;2023-04-16T06:29:42;15.25;;;12.70;;
23388;SDS011;11867;51.198;11.966;2023-04-16T06:31:03;11.95;;;10.32;;
23388;SDS011;11867;51.198;11.966;2023-04-16T06:32:24;15.48;;;12.50;;
23388;SDS011;11867;51.198;11.966;2023-04-16T06:33:46;15.45;;;12.77;;
23388;SDS011;11867;51.198;11.966;2023-04-16T06:35:07;15.68;;;12.93;;
23388;SDS011;11867;51.198;11.966;2023-04-16T06:36:25;16.55;;;14.00;;
23388;SDS011;11867;51.198;11.966;2023-04-16T06:37:48;16.60;;;14.10;;
23388;SDS011;11867;51.198;11.966;2023-04-16T06:39:09;15.88;;;12.98;;
23388;SDS011;11867;51.198;11.966;2023-04-16T06:40:30;11.93;;;10.10;;
23388;SDS011;11867;51.198;11.966;2023-04-16T06:41:51;20.02;;;14.00;;
23388;SDS011;11867;51.198;11.966;2023-04-16T06:43:13;16.23;;;13.95;;
23388;SDS011;11867;51.198;11.966;2023-04-16T06:44:34;17.52;;;14.27;;
23388;SDS011;11867;51.198;11.966;2023-04-16T06:45:54;18.85;;;14.80;;
23388;SDS011;11867;51.198;11.966;2023-04-16T06:47:14;20.77;;;14.70;;
23388;SDS011;11867;51.198;11.966;2023-04-16T06:48:35;17.75;;;14.70;;
23388;SDS011;11867;51.198;11.966;2023-04-16T06:49:57;18.67;;;14.20;;
23388;SDS011;11867;51.198;11.966;2023-04-16T06:51:17;17.15;;;14.45;;
23388;SDS011;11867;51.198;11.966;2023-04-16T06:52:39;19.35;;;14.63;;
23388;SDS011;11867;51.198;11.966;2023-04-16T06:54:00;17.20;;;13.60;;
23388;SDS011;11867;51.198;11.966;2023-04-16T06:55:22;16.33;;;13.50;;
23388;SDS011;11867;51.198;11.966;2023-04-16T06:56:42;18.77;;;13.02;;
23388;SDS011;11867;51.198;11.966;2023-04-16T06:58:03;18.00;;;14.05;;
23388;SDS011;11867;51.198;11.966;2023-04-16T06:59:23;16.85;;;13.52;;
23388;SDS011;11867;51.198;11.966;2023-04-16T07:00:45;14.57;;;12.32;;
23388;SDS011;11867;51.198;11.966;2023-04-16T07:03:24;16.15;;;13.40;;
23388;SDS011;11867;51.198;11.966;2023-04-16T07:04:46;16.20;;;13.70;;
23388;SDS011;11867;51.198;11.966;2023-04-16T07:06:07;15.90;;;12.68;;
23388;SDS011;11867;51.198;11.966;2023-04-16T07:07:29;17.20;;;13.57;;
23388;SDS011;11867;51.198;11.966;2023-04-16T07:08:50;16.02;;;13.38;;
23388;SDS011;11867;51.198;11.966;2023-04-16T07:11:34;16.20;;;12.82;;
23388;SDS011;11867;51.198;11.966;2023-04-16T07:12:55;15.55;;;13.27;;
23388;SDS011;11867;51.198;11.966;2023-04-16T07:14:16;12.70;;;10.52;;
23388;SDS011;11867;51.198;11.966;2023-04-16T07:15:37;19.10;;;13.25;;
23388;SDS011;11867;51.198;11.966;2023-04-16T07:18:19;13.80;;;10.45;;
23388;SDS011;11867;51.198;11.966;2023-04-16T07:21:01;14.10;;;12.27;;
23388;SDS011;11867;51.198;11.966;2023-04-16T07:22:23;18.88;;;13.70;;
23388;SDS011;11867;51.198;11.966;2023-04-16T07:23:43;19.02;;;14.57;;
23388;SDS011;11867;51.198;11.966;2023-04-16T07:26:26;14.02;;;9.98;;
23388;SDS011;11867;51.198;11.966;2023-04-16T07:27:46;15.20;;;12.82;;
23388;SDS011;11867;51.198;11.966;2023-04-16T07:29:08;14.45;;;12.52;;
23388;SDS011;11867;51.198;11.966;2023-04-16T07:30:29;15.95;;;13.43;;
23388;SDS011;11867;51.198;11.966;2023-04-16T07:31:52;16.05;;;13.57;;
23388;SDS011;11867;51.198;11.966;2023-04-16T07:33:14;17.63;;;13.90;;
23388;SDS011;11867;51.198;11.966;2023-04-16T07:34:35;15.07;;;13.48;;
23388;SDS011;11867;51.198;11.966;2023-04-16T07:35:56;14.20;;;10.05;;
23388;SDS011;11867;51.198;11.966;2023-04-16T07:37:17;15.15;;;12.85;;
23388;SDS011;11867;51.198;11.966;2023-04-16T07:38:38;17.00;;;13.23;;
23388;SDS011;11867;51.198;11.966;2023-04-16T07:40:00;17.23;;;13.95;;
23388;SDS011;11867;51.198;11.966;2023-04-16T07:42:43;17.23;;;13.82;;
23388;SDS011;11867;51.198;11.966;2023-04-16T07:44:04;18.60;;;14.13;;
23388;SDS011;11867;51.198;11.966;2023-04-16T07:45:25;18.17;;;14.68;;
23388;SDS011;11867;51.198;11.966;2023-04-16T07:46:46;17.13;;;14.57;;
23388;SDS011;11867;51.198;11.966;2023-04-16T07:48:07;18.63;;;14.13;;
23388;SDS011;11867;51.198;11.966;2023-04-16T07:50:49;17.50;;;13.40;;
23388;SDS011;11867;51.198;11.966;2023-04-16T07:52:11;18.00;;;13.73;;
23388;SDS011;11867;51.198;11.966;2023-04-16T07:53:32;19.30;;;14.43;;
23388;SDS011;11867;51.198;11.966;2023-04-16T07:56:14;13.73;;;11.15;;
23388;SDS011;11867;51.198;11.966;2023-04-16T07:57:36;21.10;;;14.93;;
23388;SDS011;11867;51.198;11.966;2023-04-16T08:00:39;18.58;;;14.73;;
23388;SDS011;11867;51.198;11.966;2023-04-16T08:02:00;20.40;;;16.40;;
23388;SDS011;11867;51.198;11.966;2023-04-16T08:03:21;21.73;;;16.52;;
23388;SDS011;11867;51.198;11.966;2023-04-16T08:04:43;21.90;;;16.80;;
23388;SDS011;11867;51.198;11.966;2023-04-16T08:06:05;21.67;;;18.13;;
23388;SDS011;11867;51.198;11.966;2023-04-16T08:07:25;23.48;;;18.80;;
23388;SDS011;11867;51.198;11.966;2023-04-16T08:08:46;21.75;;;18.13;;
23388;SDS011;11867;51.198;11.966;2023-04-16T08:10:05;21.85;;;18.67;;
23388;SDS011;11867;51.198;11.966;2023-04-16T08:11:27;20.38;;;17.35;;
23388;SDS011;11867;51.198;11.966;2023-04-16T08:12:49;20.92;;;17.35;;
23388;SDS011;11867;51.198;11.966;2023-04-16T08:15:32;18.10;;;15.30;;
23388;SDS011;11867;51.198;11.966;2023-04-16T08:16:53;19.02;;;15.65;;
23388;SDS011;11867;51.198;11.966;2023-04-16T08:18:14;19.75;;;15.93;;
23388;SDS011;11867;51.198;11.966;2023-04-16T08:19:35;20.00;;;15.88;;
23388;SDS011;11867;51.198;11.966;2023-04-16T08:20:57;18.45;;;15.52;;
23388;SDS011;11867;51.198;11.966;2023-04-16T08:23:39;14.18;;;11.27;;
23388;SDS011;11867;51.198;11.966;2023-04-16T08:25:01;18.40;;;15.60;;
23388;SDS011;11867;51.198;11.966;2023-04-16T08:26:22;19.48;;;15.10;;
23388;SDS011;11867;51.198;11.966;2023-04-16T08:27:43;19.20;;;16.13;;
23388;SDS011;11867;51.198;11.966;2023-04-16T08:29:04;16.23;;;12.52;;